createdAt,value
2022-11-16T00:02:35.712Z,100362.03
2022-11-16T00:05:38.634Z,100355.88
2022-11-16T00:08:45.025Z,100354.97
2022-11-16T00:11:50.365Z,100352.34
2022-11-16T00:14:53.301Z,100346.16
2022-11-16T00:17:56.044Z,100353.25
2022-11-16T00:20:59.119Z,100348.91
2022-11-16T00:24:02.275Z,100352.41
2022-11-16T00:27:05.117Z,100354.19
2022-11-16T00:30:08.243Z,100349.75
2022-11-16T00:33:15.686Z,100340.91
2022-11-16T00:36:18.533Z,100341.81
2022-11-16T00:39:23.002Z,100342.75
2022-11-16T00:42:25.730Z,100343.66
2022-11-16T00:45:28.804Z,100333.88
2022-11-16T00:48:31.736Z,100333.94
2022-11-16T00:51:35.936Z,100341.06
2022-11-16T00:54:38.843Z,100339.31
2022-11-16T00:57:42.450Z,100339.31
2022-11-16T01:00:46.037Z,100334.00
2022-11-16T01:03:49.156Z,100319.03
2022-11-16T01:06:51.832Z,100325.22
2022-11-16T01:09:54.483Z,100310.19
2022-11-16T01:12:57.495Z,100314.66
2022-11-16T01:16:00.392Z,100309.34
2022-11-16T01:19:04.063Z,100311.06
2022-11-16T01:22:07.466Z,100319.84
2022-11-16T01:25:11.940Z,100308.44
2022-11-16T01:28:14.850Z,100296.88
2022-11-16T01:31:24.801Z,100303.06
2022-11-16T01:34:28.330Z,100299.50
2022-11-16T01:37:36.915Z,100294.09
2022-11-16T01:40:40.787Z,100293.16
2022-11-16T01:43:49.883Z,100289.59
2022-11-16T01:46:52.937Z,100291.34
2022-11-16T01:50:03.719Z,100297.34
2022-11-16T01:53:10.395Z,100300.91
2022-11-16T01:56:33.557Z,100307.19
2022-11-16T01:59:50.510Z,100302.91
2022-11-16T02:02:55.959Z,100302.06
2022-11-16T02:06:27.857Z,100300.28
2022-11-16T02:09:54.354Z,100297.66
2022-11-16T02:13:28.141Z,100288.00
2022-11-16T02:16:30.797Z,100283.59
2022-11-16T02:19:58.609Z,100280.09
2022-11-16T02:23:22.816Z,100283.56
2022-11-16T02:26:31.451Z,100274.78
2022-11-16T02:29:37.006Z,100270.38
2022-11-16T02:32:46.509Z,100252.63
2022-11-16T02:35:55.347Z,100274.75
2022-11-16T02:39:05.437Z,100267.72
2022-11-16T02:42:13.035Z,100269.50
2022-11-16T02:45:22.354Z,100262.44
2022-11-16T02:48:30.588Z,100244.84
2022-11-16T02:51:35.317Z,100251.97
2022-11-16T02:54:38.073Z,100248.47
2022-11-16T02:57:46.885Z,100237.84
2022-11-16T03:01:12.904Z,100244.97
2022-11-16T03:04:20.529Z,100248.50
2022-11-16T03:07:27.705Z,100229.91
2022-11-16T03:10:50.946Z,100244.94
2022-11-16T03:13:58.166Z,100238.78
2022-11-16T03:17:03.247Z,100229.03
2022-11-16T03:23:26.382Z,100225.59
2022-11-16T03:26:34.388Z,100223.84
2022-11-16T03:30:06.534Z,100225.56
2022-11-16T03:33:16.438Z,100220.28
2022-11-16T03:36:28.532Z,100211.50
2022-11-16T03:39:34.622Z,100208.88
2022-11-16T03:42:40.083Z,100217.69
2022-11-16T03:45:45.594Z,100212.38
2022-11-16T03:48:48.506Z,100212.38
2022-11-16T03:51:59.587Z,100213.28
2022-11-16T03:55:02.912Z,100208.81
2022-11-16T03:58:06.064Z,100204.47
2022-11-16T04:01:09.973Z,100220.34
2022-11-16T04:04:33.630Z,100213.28
2022-11-16T04:07:56.088Z,100209.75
2022-11-16T04:11:18.286Z,100208.00
2022-11-16T04:14:42.952Z,100209.75
2022-11-16T04:18:07.129Z,100203.56
2022-11-16T04:21:41.071Z,100215.06
2022-11-16T04:24:47.044Z,100195.69
2022-11-16T04:28:08.474Z,100197.47
2022-11-16T04:31:30.343Z,100190.41
2022-11-16T04:34:59.050Z,100191.31
2022-11-16T04:38:03.709Z,100195.72
2022-11-16T04:41:29.873Z,100194.78
2022-11-16T04:44:55.831Z,100207.13
2022-11-16T04:48:01.637Z,100194.72
2022-11-16T04:51:07.183Z,100205.31
2022-11-16T04:54:10.956Z,100206.19
2022-11-16T04:57:14.274Z,100192.06
2022-11-16T05:00:18.688Z,100180.63
2022-11-16T05:03:21.347Z,100182.44
2022-11-16T05:06:24.336Z,100186.84
2022-11-16T05:09:26.913Z,100181.53
2022-11-16T05:12:30.558Z,100179.72
2022-11-16T05:15:36.379Z,100186.78
2022-11-16T05:18:39.895Z,100185.97
2022-11-16T05:21:43.440Z,100179.78
2022-11-16T05:24:46.733Z,100184.03
2022-11-16T05:27:49.573Z,100184.09
2022-11-16T05:30:52.358Z,100182.25
2022-11-16T05:33:58.571Z,100180.50
2022-11-16T05:37:01.771Z,100174.25
2022-11-16T05:40:06.074Z,100176.91
2022-11-16T05:43:18.661Z,100177.78
2022-11-16T05:46:35.197Z,100182.16
2022-11-16T05:49:38.013Z,100183.06
2022-11-16T05:52:40.822Z,100190.13
2022-11-16T05:55:46.947Z,100196.31
2022-11-16T05:58:49.691Z,100188.41
2022-11-16T06:01:52.963Z,100192.91
2022-11-16T06:04:55.753Z,100175.28
2022-11-16T06:07:59.028Z,100184.91
2022-11-16T06:11:03.284Z,100185.78
2022-11-16T06:14:06.791Z,100202.56
2022-11-16T06:17:14.697Z,100184.97
2022-11-16T06:20:18.689Z,100191.94
2022-11-16T06:23:22.892Z,100184.13
2022-11-16T06:26:27.087Z,100189.41
2022-11-16T06:29:30.596Z,100182.38
2022-11-16T06:32:33.928Z,100186.81
2022-11-16T06:35:38.092Z,100177.97
2022-11-16T06:38:41.285Z,100196.50
2022-11-16T06:41:45.320Z,100187.69
2022-11-16T06:44:49.277Z,100199.22
2022-11-16T06:47:56.136Z,100186.00
2022-11-16T06:50:59.595Z,100183.22
2022-11-16T06:54:02.530Z,100189.41
2022-11-16T06:57:05.374Z,100192.81
2022-11-16T07:00:09.706Z,100191.91
2022-11-16T07:03:13.959Z,100192.00
2022-11-16T07:06:16.773Z,100182.31
2022-11-16T07:09:21.824Z,100194.66
2022-11-16T07:12:24.360Z,100197.22
2022-11-16T07:15:27.383Z,100177.78
2022-11-16T07:18:30.194Z,100191.91
2022-11-16T07:21:33.224Z,100182.16
2022-11-16T07:24:38.699Z,100184.81
2022-11-16T07:27:41.664Z,100183.13
2022-11-16T07:30:44.986Z,100182.25
2022-11-16T07:33:54.929Z,100184.88
2022-11-16T07:37:20.964Z,100183.09
2022-11-16T07:40:24.040Z,100178.69
2022-11-16T07:43:26.750Z,100175.94
2022-11-16T07:46:47.147Z,100185.59
2022-11-16T07:49:51.235Z,100166.91
2022-11-16T07:52:56.800Z,100171.41
2022-11-16T07:55:59.792Z,100171.44
2022-11-16T07:59:06.360Z,100163.47
2022-11-16T08:02:11.522Z,100166.94
2022-11-16T08:05:16.821Z,100160.81
2022-11-16T08:08:19.712Z,100178.44
2022-11-16T08:11:22.909Z,100168.75
2022-11-16T08:14:27.183Z,100170.41
2022-11-16T08:17:32.471Z,100161.63
2022-11-16T08:20:36.818Z,100174.00
2022-11-16T08:23:40.797Z,100185.44
2022-11-16T08:26:43.656Z,100175.78
2022-11-16T08:29:49.369Z,100178.47
2022-11-16T08:32:51.993Z,100161.59
2022-11-16T08:35:56.060Z,100153.66
2022-11-16T08:38:58.835Z,100164.31
2022-11-16T08:42:01.682Z,100167.88
2022-11-16T08:45:04.350Z,100161.72
2022-11-16T08:48:07.595Z,100170.56
2022-11-16T08:51:19.206Z,100174.09
2022-11-16T08:54:29.870Z,100176.72
2022-11-16T08:57:32.975Z,100185.63
2022-11-16T09:00:40.457Z,100171.50
2022-11-16T09:03:43.254Z,100177.72
2022-11-16T09:06:46.554Z,100180.38
2022-11-16T09:09:49.299Z,100171.53
2022-11-16T09:12:53.096Z,100168.84
2022-11-16T09:15:57.713Z,100183.00
2022-11-16T09:19:01.922Z,100172.50
2022-11-16T09:22:04.925Z,100167.22
2022-11-16T09:25:09.624Z,100166.31
2022-11-16T09:28:12.364Z,100166.22
2022-11-16T09:31:18.957Z,100154.78
2022-11-16T09:34:25.794Z,100165.44
2022-11-16T09:37:28.637Z,100154.88
2022-11-16T09:40:34.675Z,100166.34
2022-11-16T09:43:47.738Z,100161.91
2022-11-16T09:46:56.457Z,100152.22
2022-11-16T09:50:03.578Z,100151.38
2022-11-16T09:53:20.056Z,100151.41
2022-11-16T09:56:27.135Z,100138.25
2022-11-16T09:59:38.851Z,100136.59
2022-11-16T10:02:45.033Z,100139.28
2022-11-16T10:06:05.962Z,100133.09
2022-11-16T10:09:11.405Z,100133.16
2022-11-16T10:12:28.106Z,100137.56
2022-11-16T10:15:37.122Z,100141.13
2022-11-16T10:18:47.297Z,100125.31
2022-11-16T10:22:23.410Z,100113.84
2022-11-16T10:25:39.190Z,100116.53
2022-11-16T10:29:10.549Z,100117.41
2022-11-16T10:32:30.309Z,100113.00
2022-11-16T10:35:39.902Z,100109.53
2022-11-16T10:38:43.852Z,100101.72
2022-11-16T10:41:50.793Z,100101.72
2022-11-16T10:45:11.808Z,100109.66
2022-11-16T10:48:51.858Z,100108.69
2022-11-16T10:51:54.340Z,100107.78
2022-11-16T10:54:57.105Z,100101.66
2022-11-16T10:58:05.669Z,100096.34
2022-11-16T11:01:12.520Z,100111.28
2022-11-16T11:04:15.224Z,100106.97
2022-11-16T11:07:31.601Z,100096.41
2022-11-16T11:10:37.742Z,100103.50
2022-11-16T11:13:40.713Z,100090.22
2022-11-16T11:16:43.410Z,100100.81
2022-11-16T11:19:47.319Z,100099.00
2022-11-16T11:23:00.913Z,100111.28
2022-11-16T11:26:04.294Z,100097.97
2022-11-16T11:29:27.827Z,100107.72
2022-11-16T11:32:39.179Z,100112.06
2022-11-16T11:35:41.824Z,100109.19
2022-11-16T11:39:01.928Z,100119.69
2022-11-16T11:42:13.411Z,100125.72
2022-11-16T11:45:16.078Z,100115.88
2022-11-16T11:48:28.506Z,100127.22
2022-11-16T11:51:38.511Z,100110.41
2022-11-16T11:54:46.038Z,100122.72
2022-11-16T11:57:53.170Z,100135.03
2022-11-16T12:01:25.059Z,100138.50
2022-11-16T12:04:34.714Z,100131.38
2022-11-16T12:07:59.526Z,100126.88
2022-11-16T12:11:17.677Z,100132.97
2022-11-16T12:15:15.986Z,100115.19
2022-11-16T12:18:55.600Z,100122.03
2022-11-16T12:22:21.520Z,100141.19
2022-11-16T12:25:59.280Z,100143.88
2022-11-16T12:29:14.054Z,100134.09
2022-11-16T12:32:29.885Z,100156.03
2022-11-16T12:35:51.607Z,100149.69
2022-11-16T12:39:31.938Z,100153.00
2022-11-16T12:42:37.183Z,100144.97
2022-11-16T12:45:50.803Z,100154.69
2022-11-16T12:49:31.711Z,100153.63
2022-11-16T12:52:43.619Z,100151.81
2022-11-16T12:56:05.248Z,100146.53
2022-11-16T12:59:11.081Z,100153.53
2022-11-16T13:02:36.006Z,100148.25
2022-11-16T13:06:07.374Z,100157.72
2022-11-16T13:09:20.870Z,100155.03
2022-11-16T13:12:25.823Z,100149.78
2022-11-16T13:15:34.872Z,100147.97
2022-11-16T13:18:42.608Z,100160.19
2022-11-16T13:22:00.144Z,100166.34
2022-11-16T13:25:20.463Z,100176.84
2022-11-16T13:28:39.384Z,100173.97
2022-11-16T13:32:07.367Z,100178.22
2022-11-16T13:35:21.095Z,100172.88
2022-11-16T13:38:49.565Z,100175.47
2022-11-16T13:42:06.782Z,100157.88
2022-11-16T13:45:19.701Z,100164.09
2022-11-16T13:48:34.616Z,100157.09
2022-11-16T13:51:38.190Z,100171.91
2022-11-16T13:54:45.869Z,100158.53
2022-11-16T13:57:54.144Z,100165.63
2022-11-16T14:01:03.725Z,100170.88
2022-11-16T14:04:55.894Z,100172.59
2022-11-16T14:07:58.483Z,100181.25
2022-11-16T14:11:01.955Z,100181.94
2022-11-16T14:14:43.586Z,100182.00
2022-11-16T14:18:08.838Z,100176.75
2022-11-16T14:21:14.479Z,100181.06
2022-11-16T14:24:35.896Z,100156.53
2022-11-16T14:27:56.234Z,100165.28
2022-11-16T14:31:16.347Z,100168.81
2022-11-16T14:34:22.787Z,100166.19
2022-11-16T14:37:25.862Z,100168.91
2022-11-16T14:40:28.686Z,100159.91
2022-11-16T14:43:40.832Z,100161.84
2022-11-16T14:46:44.241Z,100171.56
2022-11-16T14:49:47.439Z,100165.34
2022-11-16T14:52:53.836Z,100174.06
2022-11-16T14:56:08.876Z,100167.13
2022-11-16T14:59:17.008Z,100173.22
2022-11-16T15:02:25.010Z,100177.56
2022-11-16T15:05:29.578Z,100173.25
2022-11-16T15:08:38.309Z,100172.50
2022-11-16T15:12:01.068Z,100156.59
2022-11-16T15:15:07.849Z,100161.06
2022-11-16T15:18:15.118Z,100160.13
2022-11-16T15:21:22.901Z,100158.41
2022-11-16T15:24:32.020Z,100161.72
2022-11-16T15:27:38.745Z,100150.25
2022-11-16T15:30:41.575Z,100144.94
2022-11-16T15:33:46.039Z,100166.81
2022-11-16T15:36:49.182Z,100159.75
2022-11-16T15:39:52.283Z,100155.34
2022-11-16T15:42:55.222Z,100162.44
2022-11-16T15:45:59.619Z,100161.44
2022-11-16T15:49:03.005Z,100159.91
2022-11-16T15:52:06.193Z,100159.97
2022-11-16T15:55:32.107Z,100154.56
2022-11-16T15:58:38.881Z,100158.22
2022-11-16T16:01:43.334Z,100167.25
2022-11-16T16:04:46.364Z,100160.13
2022-11-16T16:07:49.094Z,100153.97
2022-11-16T16:11:11.680Z,100153.16
2022-11-16T16:14:29.541Z,100156.72
2022-11-16T16:17:32.564Z,100170.88
2022-11-16T16:20:35.320Z,100157.59
2022-11-16T16:23:56.060Z,100165.56
2022-11-16T16:26:58.745Z,100162.00
2022-11-16T16:30:04.820Z,100158.41
2022-11-16T16:33:19.427Z,100157.47
2022-11-16T16:36:22.522Z,100162.81
2022-11-16T16:39:25.816Z,100164.50
2022-11-16T16:42:28.931Z,100166.38
2022-11-16T16:45:39.352Z,100174.28
2022-11-16T16:48:44.788Z,100165.44
2022-11-16T16:51:47.737Z,100160.25
2022-11-16T16:54:50.773Z,100166.25
2022-11-16T16:57:56.852Z,100163.59
2022-11-16T17:01:05.197Z,100182.25
2022-11-16T17:04:08.879Z,100168.25
2022-11-16T17:07:11.734Z,100178.91
2022-11-16T17:10:14.528Z,100163.69
2022-11-16T17:13:18.558Z,100182.25
2022-11-16T17:16:23.054Z,100183.97
2022-11-16T17:19:27.419Z,100186.78
2022-11-16T17:22:31.411Z,100180.41
2022-11-16T17:25:43.159Z,100185.94
2022-11-16T17:28:47.428Z,100175.47
2022-11-16T17:31:55.508Z,100175.47
2022-11-16T17:35:00.096Z,100179.78
2022-11-16T17:38:25.001Z,100174.53
2022-11-16T17:41:34.118Z,100170.06
2022-11-16T17:44:51.805Z,100173.56
2022-11-16T17:47:56.269Z,100189.44
2022-11-16T17:51:07.193Z,100175.34
2022-11-16T17:54:11.752Z,100177.03
2022-11-16T17:57:16.316Z,100184.09
2022-11-16T18:00:23.884Z,100180.72
2022-11-16T18:03:29.833Z,100190.53
2022-11-16T18:06:34.698Z,100169.44
2022-11-16T18:09:39.680Z,100178.91
2022-11-16T18:13:01.701Z,100172.88
2022-11-16T18:16:18.879Z,100180.78
2022-11-16T18:19:24.018Z,100178.84
2022-11-16T18:22:28.741Z,100171.97
2022-11-16T18:25:35.275Z,100179.03
2022-11-16T18:28:40.186Z,100181.53
2022-11-16T18:31:45.159Z,100181.69
2022-11-16T18:34:50.795Z,100185.09
2022-11-16T18:37:56.650Z,100172.91
2022-11-16T18:41:30.130Z,100178.09
2022-11-16T18:44:45.193Z,100183.25
2022-11-16T18:47:50.693Z,100176.19
2022-11-16T18:51:03.571Z,100176.28
2022-11-16T18:54:09.747Z,100191.25
2022-11-16T18:57:21.625Z,100192.06
2022-11-16T19:00:43.803Z,100194.50
2022-11-16T19:03:51.480Z,100174.44
2022-11-16T19:06:57.242Z,100184.09
2022-11-16T19:35:54.363Z,100186.41
2022-11-16T19:38:58.797Z,100192.59
2022-11-16T19:42:02.199Z,100190.09
2022-11-16T19:45:06.788Z,100190.03
2022-11-16T19:48:11.068Z,100190.19
2022-11-16T19:51:22.798Z,100188.53
2022-11-16T19:54:32.662Z,100199.72
2022-11-16T19:57:36.620Z,100198.78
2022-11-16T20:00:40.568Z,100198.00
2022-11-16T20:04:35.325Z,100205.19
2022-11-16T20:07:39.124Z,100198.91
2022-11-16T20:10:42.528Z,100206.00
2022-11-16T20:13:50.756Z,100206.88
2022-11-16T20:16:54.937Z,100199.00
2022-11-16T20:19:58.908Z,100203.50
2022-11-16T20:23:02.406Z,100205.22
2022-11-16T20:26:07.268Z,100206.81
2022-11-16T20:29:13.354Z,100205.06
2022-11-16T20:32:16.878Z,100212.88
2022-11-16T20:35:20.396Z,100202.44
2022-11-16T20:38:23.606Z,100190.97
2022-11-16T20:41:31.652Z,100193.63
2022-11-16T20:44:35.939Z,100198.03
2022-11-16T20:47:39.785Z,100191.03
2022-11-16T20:50:45.992Z,100191.25
2022-11-16T20:53:50.933Z,100196.56
2022-11-16T20:56:54.369Z,100182.34
2022-11-16T20:59:57.895Z,100197.38
2022-11-16T21:03:01.258Z,100192.88
2022-11-16T21:06:09.029Z,100193.81
2022-11-16T21:09:12.675Z,100195.56
2022-11-16T21:12:43.012Z,100194.53
2022-11-16T21:16:03.489Z,100187.31
2022-11-16T21:19:07.354Z,100198.91
2022-11-16T21:22:10.191Z,100205.88
2022-11-16T21:25:13.271Z,100200.59
2022-11-16T21:28:22.703Z,100208.50
2022-11-16T21:31:30.431Z,100197.97
2022-11-16T21:34:37.347Z,100195.34
2022-11-16T21:37:42.951Z,100191.91
2022-11-16T21:40:45.759Z,100199.88
2022-11-16T21:43:48.923Z,100190.09
2022-11-16T21:46:51.776Z,100188.34
2022-11-16T21:50:24.816Z,100196.38
2022-11-16T21:53:18.714Z,100198.00
2022-11-16T21:56:23.799Z,100198.97
2022-11-16T21:59:26.317Z,100192.78
2022-11-16T22:02:29.211Z,100190.19
2022-11-16T22:05:50.267Z,100189.31
2022-11-16T22:08:53.539Z,100191.09
2022-11-16T22:11:59.823Z,100198.19
2022-11-16T22:15:07.051Z,100192.88
2022-11-16T22:18:09.793Z,100193.75
2022-11-16T22:21:12.666Z,100187.66
2022-11-16T22:24:15.791Z,100194.41
2022-11-16T22:27:19.301Z,100193.63
2022-11-16T22:30:21.796Z,100198.81
2022-11-16T22:33:24.530Z,100191.66
2022-11-16T22:36:27.106Z,100190.84
2022-11-16T22:39:30.199Z,100201.34
2022-11-16T22:42:32.971Z,100189.84
2022-11-16T22:45:36.443Z,100197.13
2022-11-16T22:48:41.285Z,100196.03
2022-11-16T22:51:44.438Z,100190.91
2022-11-16T22:54:47.140Z,100190.97
2022-11-16T22:57:50.125Z,100197.09
2022-11-16T23:00:52.637Z,100190.09
2022-11-16T23:03:55.571Z,100190.03
2022-11-16T23:06:58.144Z,100179.50
2022-11-16T23:10:00.986Z,100181.25
2022-11-16T23:13:23.111Z,100179.25
2022-11-16T23:16:25.981Z,100179.44
2022-11-16T23:19:47.424Z,100192.53
2022-11-16T23:23:08.754Z,100188.00
2022-11-16T23:26:36.769Z,100171.34
2022-11-16T23:29:39.572Z,100186.53
2022-11-16T23:32:42.600Z,100191.03
2022-11-16T23:35:45.544Z,100194.41
2022-11-16T23:38:48.244Z,100190.84
2022-11-16T23:42:09.872Z,100188.06
2022-11-16T23:45:12.550Z,100184.41
2022-11-16T23:48:16.795Z,100182.50
2022-11-16T23:51:19.713Z,100185.38
2022-11-16T23:54:22.628Z,100183.56
2022-11-16T23:57:25.228Z,100190.56
